Time;durP1;ratioP1;P1;durP2;ratioP2;P2;SDS_P1;SDS_P2;PMS_P1;PMS_P2;Temp;Humidity;BMP_temperature;BMP_pressure;BME280_temperature;BME280_humidity;BME280_pressure;Samples;Min_cycle;Max_cycle;Signal;HPM_P1;HPM_P2
2022/06/22 00:00:38;;;;;;;8.27;5.68;;;;;;;23.17;46.87;93541.19;5028197;28;20021;-75
2022/06/22 00:03:09;;;;;;;9.43;6.25;;;;;;;23.20;47.48;93556.66;5026549;28;20022;-75
2022/06/22 00:05:49;;;;;;;8.30;6.88;;;;;;;23.28;46.95;93547.28;5026892;28;20476;-75
2022/06/22 00:08:36;;;;;;;9.85;7.20;;;;;;;23.24;46.90;93554.69;5032034;28;20686;-76
2022/06/22 00:11:12;;;;;;;12.77;6.20;;;;;;;23.26;47.21;93555.06;5016272;28;20103;-74
2022/06/22 00:13:44;;;;;;;10.57;7.20;;;;;;;23.14;46.86;93546.22;5013657;28;20456;-74
2022/06/22 00:16:24;;;;;;;10.52;6.82;;;;;;;23.06;46.95;93552.09;5011400;28;20521;-74
2022/06/22 00:18:51;;;;;;;7.93;7.07;;;;;;;23.10;47.50;93569.91;5013087;28;20037;-74
2022/06/22 00:21:25;;;;;;;8.80;6.32;;;;;;;23.14;47.62;93565.22;5014030;28;20738;-74
2022/06/22 00:24:03;;;;;;;9.57;7.38;;;;;;;23.00;47.34;93538.19;5014355;28;20034;-73
2022/06/22 00:26:32;;;;;;;8.75;6.40;;;;;;;23.08;47.30;93555.94;5018844;28;20046;-74
2022/06/22 00:29:05;;;;;;;10.57;6.45;;;;;;;23.17;47.46;93557.47;5013682;28;20031;-74
2022/06/22 00:31:57;;;;;;;7.57;6.20;;;;;;;23.23;47.33;93550.41;5013951;28;20096;-73
2022/06/22 00:34:26;;;;;;;10.43;6.93;;;;;;;23.09;47.70;93560.22;5013471;28;20128;-75
2022/06/22 00:37:05;;;;;;;8.75;6.20;;;;;;;23.02;47.53;93541.28;5013376;28;20417;-74
2022/06/22 00:39:30;;;;;;;10.40;6.45;;;;;;;22.91;48.33;93556.84;5016007;28;20017;-74
2022/06/22 00:42:00;;;;;;;7.03;6.32;;;;;;;22.91;48.33;93543.31;5015129;28;20041;-74
2022/06/22 00:44:30;;;;;;;8.18;6.65;;;;;;;22.76;48.46;93528.25;5042925;28;20648;-74
2022/06/22 00:47:23;;;;;;;8.45;7.32;;;;;;;22.86;48.47;93554.56;5013468;28;20089;-74
2022/06/22 00:49:48;;;;;;;10.25;6.32;;;;;;;22.80;48.63;93531.72;5015011;28;20038;-73
2022/06/22 00:52:24;;;;;;;9.77;6.25;;;;;;;22.98;48.46;93562.22;5013983;28;20472;-74
2022/06/22 00:54:50;;;;;;;8.88;6.78;;;;;;;22.97;48.59;93566.13;5011734;28;20533;-74
2022/06/22 00:57:25;;;;;;;9.38;6.80;;;;;;;22.80;49.03;93550.69;5013171;28;20108;-75
2022/06/22 01:00:01;;;;;;;10.32;6.57;;;;;;;22.57;49.12;93520.63;5013518;28;20128;-74
2022/06/22 01:02:47;;;;;;;13.55;7.90;;;;;;;22.92;48.96;93563.06;5013050;28;20029;-75
2022/06/22 01:05:17;;;;;;;9.48;6.50;;;;;;;22.85;48.96;93544.84;5012698;28;20033;-74
2022/06/22 01:07:45;;;;;;;9.38;6.50;;;;;;;22.92;48.86;93563.84;5013371;28;20061;-74
2022/06/22 01:10:51;;;;;;;11.80;7.45;;;;;;;22.82;49.10;93561.91;5013078;28;21029;-74
2022/06/22 01:13:25;;;;;;;8.20;6.82;;;;;;;22.91;49.21;93550.66;5011722;28;20120;-74
2022/06/22 01:15:57;;;;;;;9.13;7.65;;;;;;;22.90;48.98;93524.72;5010499;28;20465;-74
2022/06/22 01:18:38;;;;;;;12.77;7.25;;;;;;;23.10;48.73;93547.44;5013702;28;20090;-74
2022/06/22 01:21:09;;;;;;;7.25;6.55;;;;;;;23.23;48.28;93550.41;5011472;28;20033;-74
2022/06/22 01:23:45;;;;;;;10.70;6.63;;;;;;;23.22;47.77;93538.78;5013820;28;20048;-75
2022/06/22 01:26:23;;;;;;;10.98;7.82;;;;;;;23.13;47.95;93552.03;5044385;28;20049;-74
2022/06/22 01:28:54;;;;;;;9.75;7.60;;;;;;;23.17;48.11;93552.03;5013734;28;20034;-74
2022/06/22 01:31:20;;;;;;;7.80;7.00;;;;;;;23.08;48.12;93528.84;5012527;28;20501;-74
2022/06/22 01:33:50;;;;;;;8.27;7.00;;;;;;;23.17;48.38;93537.28;5012948;28;20092;-74
2022/06/22 01:36:31;;;;;;;12.90;7.65;;;;;;;23.14;48.04;93540.81;5011590;28;20289;-75
2022/06/22 01:38:57;;;;;;;11.05;8.05;;;;;;;23.07;48.00;93521.13;5012305;28;20048;-74
2022/06/22 01:41:48;;;;;;;11.23;7.18;;;;;;;23.09;47.89;93533.09;5011245;28;20042;-73
2022/06/22 01:44:23;;;;;;;9.23;6.43;;;;;;;23.01;47.95;93533.53;5009270;28;20108;-73
2022/06/22 01:46:48;;;;;;;10.82;7.45;;;;;;;23.06;47.89;93525.75;5009524;28;20132;-74
2022/06/22 01:49:24;;;;;;;10.98;7.07;;;;;;;23.11;47.19;93522.63;5010742;28;20040;-74
2022/06/22 01:52:01;;;;;;;8.50;6.30;;;;;;;23.19;47.05;93517.13;5009548;28;20045;-73
2022/06/22 01:54:32;;;;;;;9.07;6.22;;;;;;;22.98;47.44;93493.66;5012464;28;20029;-73
2022/06/22 01:57:18;;;;;;;7.97;6.82;;;;;;;23.13;47.22;93517.56;5022654;28;20034;-75
2022/06/22 01:59:57;;;;;;;10.15;7.88;;;;;;;23.03;47.04;93510.28;5044720;28;20056;-76
2022/06/22 02:02:35;;;;;;;9.93;6.65;;;;;;;23.01;47.34;93512.63;5046619;28;20052;-75
2022/06/22 02:05:15;;;;;;;9.57;8.05;;;;;;;23.20;47.52;93533.00;5045379;28;20035;-76
2022/06/22 02:07:46;;;;;;;8.55;7.03;;;;;;;23.28;47.44;93531.78;5046821;28;20036;-76
2022/06/22 02:10:23;;;;;;;7.18;6.18;;;;;;;23.33;47.39;93534.06;5044674;28;20033;-76
2022/06/22 02:13:24;;;;;;;11.63;6.85;;;;;;;23.45;47.14;93538.25;5049029;28;20041;-74
2022/06/22 02:16:13;;;;;;;6.90;6.15;;;;;;;23.40;47.16;93533.25;5045629;28;20032;-75
2022/06/22 02:18:43;;;;;;;9.43;7.55;;;;;;;23.38;47.17;93530.16;5047111;28;20047;-75
2022/06/22 02:21:36;;;;;;;9.45;6.97;;;;;;;23.31;47.32;93524.78;5046671;28;20021;-76
2022/06/22 02:24:13;;;;;;;11.15;7.30;;;;;;;23.29;47.92;93527.13;5022605;28;20093;-75
2022/06/22 02:27:08;;;;;;;16.05;8.30;;;;;;;23.27;48.03;93507.78;5024974;28;20053;-75
2022/06/22 02:29:41;;;;;;;9.85;7.70;;;;;;;23.20;48.27;93507.81;5024043;28;20041;-76
2022/06/22 02:32:10;;;;;;;10.27;7.05;;;;;;;23.32;47.95;93518.19;5025914;28;20038;-75
2022/06/22 02:34:38;;;;;;;9.63;7.22;;;;;;;23.13;48.08;93498.56;5024811;28;20038;-76
2022/06/22 02:37:07;;;;;;;10.57;6.85;;;;;;;23.17;48.49;93512.13;5025418;28;20081;-76
2022/06/22 02:39:37;;;;;;;10.30;7.10;;;;;;;23.22;48.45;93516.34;5023975;28;20056;-76
2022/06/22 02:44:48;;;;;;;11.35;7.28;;;;;;;23.12;48.29;93505.16;5016186;28;20049;-76
2022/06/22 02:47:31;;;;;;;8.80;7.10;;;;;;;23.20;48.70;93524.09;5025623;28;20030;-76
2022/06/22 02:50:24;;;;;;;7.75;6.78;;;;;;;23.09;48.65;93497.84;5025270;28;20025;-73
2022/06/22 02:52:52;;;;;;;11.07;7.25;;;;;;;23.10;49.13;93515.66;5032996;28;20425;-76
2022/06/22 02:55:22;;;;;;;8.60;7.32;;;;;;;22.94;48.94;93492.91;5025464;28;20040;-76
2022/06/22 02:57:57;;;;;;;11.73;7.85;;;;;;;23.01;49.41;93520.00;5026170;28;20053;-76
2022/06/22 03:00:24;;;;;;;;;;;;;;;22.94;49.61;93518.09;5024739;28;20111;-77
2022/06/22 03:02:56;;;;;;;8.13;7.07;;;;;;;22.78;49.51;93512.34;5026138;28;20345;-77
2022/06/22 03:05:23;;;;;;;10.23;7.28;;;;;;;22.82;49.52;93513.13;5019965;28;20121;-74
2022/06/22 03:07:52;;;;;;;10.18;7.68;;;;;;;22.88;49.69;93530.50;5010827;28;20104;-74
2022/06/22 03:10:21;;;;;;;10.35;7.45;;;;;;;22.92;49.80;93531.28;5015230;28;20030;-76
2022/06/22 03:12:46;;;;;;;13.70;7.38;;;;;;;22.69;50.12;93503.88;5011927;28;20484;-76
2022/06/22 03:15:16;;;;;;;12.10;7.97;;;;;;;22.59;50.37;93512.84;5056810;28;20033;-75
2022/06/22 03:17:42;;;;;;;8.95;7.15;;;;;;;22.67;50.62;93531.41;5026193;28;20046;-76
2022/06/22 03:20:21;;;;;;;8.68;7.18;;;;;;;22.65;50.86;93528.31;5023734;28;20042;-76
2022/06/22 03:23:18;;;;;;;12.20;7.70;;;;;;;22.72;49.90;93530.22;5023245;28;20050;-76
2022/06/22 03:25:51;;;;;;;11.23;7.28;;;;;;;22.63;50.54;93522.50;5027799;28;20041;-77
2022/06/22 03:28:22;;;;;;;11.95;9.15;;;;;;;22.72;50.26;93527.50;5025921;28;20064;-77
2022/06/22 03:30:54;;;;;;;13.65;8.55;;;;;;;22.67;50.62;93522.50;5027542;28;20827;-76
2022/06/22 03:33:27;;;;;;;12.43;8.20;;;;;;;22.65;50.51;93525.59;5026849;28;20084;-77
2022/06/22 03:35:57;;;;;;;10.80;7.88;;;;;;;22.60;50.92;93525.25;5048085;28;20052;-75
2022/06/22 03:38:27;;;;;;;11.00;8.23;;;;;;;22.62;50.50;93520.22;5048104;28;20130;-76
2022/06/22 03:40:57;;;;;;;11.90;7.88;;;;;;;22.66;50.67;93518.25;5046356;28;20043;-75
2022/06/22 03:43:35;;;;;;;11.65;7.40;;;;;;;22.59;50.29;93496.59;5050145;28;20100;-75
2022/06/22 03:46:04;;;;;;;11.18;8.20;;;;;;;22.75;50.29;93515.88;5051691;28;20324;-75
2022/06/22 03:48:44;;;;;;;12.25;8.45;;;;;;;22.87;50.07;93531.72;5049026;28;20021;-75
2022/06/22 03:51:24;;;;;;;10.68;7.97;;;;;;;22.89;50.12;93521.22;5056319;28;20478;-75
2022/06/22 03:54:19;;;;;;;8.85;7.93;;;;;;;22.93;49.64;93519.25;5046236;28;20056;-75
2022/06/22 03:56:48;;;;;;;;;;;;;;;22.93;50.48;93524.69;5039040;28;20033;-75
2022/06/22 03:59:14;;;;;;;10.98;8.65;;;;;;;22.86;50.51;93538.28;5050775;28;20458;-76
2022/06/22 04:01:41;;;;;;;12.35;8.40;;;;;;;22.84;50.87;93537.88;5050195;28;20096;-75
2022/06/22 04:04:07;;;;;;;10.43;8.70;;;;;;;22.85;50.43;93542.13;5049183;28;20054;-76
2022/06/22 04:06:45;;;;;;;12.55;8.75;;;;;;;22.82;50.61;93551.06;5052155;28;20063;-76
2022/06/22 04:09:21;;;;;;;12.57;9.20;;;;;;;22.78;50.92;93553.00;5054970;28;20100;-75
2022/06/22 04:12:05;;;;;;;11.30;9.10;;;;;;;22.76;50.65;93552.66;5045661;28;20037;-76
2022/06/22 04:14:51;;;;;;;11.43;9.17;;;;;;;22.46;51.30;93553.19;5038266;28;20128;-74
2022/06/22 04:17:33;;;;;;;11.70;9.30;;;;;;;22.36;52.34;93545.88;5035624;28;20287;-73
2022/06/22 04:20:07;;;;;;;14.77;8.50;;;;;;;22.26;52.52;93539.34;5033427;28;20040;-74
2022/06/22 04:22:38;;;;;;;12.50;9.38;;;;;;;22.10;53.14;93513.84;5033676;28;20037;-74
2022/06/22 04:25:35;;;;;;;12.05;9.45;;;;;;;22.17;53.87;93527.34;5041843;28;20072;-74
2022/06/22 04:28:05;;;;;;;12.48;8.68;;;;;;;22.17;53.21;93511.88;5036746;28;20049;-74
2022/06/22 04:30:42;;;;;;;12.43;8.77;;;;;;;22.27;53.36;93527.34;5037714;28;20114;-74
2022/06/22 04:33:20;;;;;;;11.15;8.43;;;;;;;22.24;53.84;93541.66;5036526;28;20028;-75
2022/06/22 04:36:04;;;;;;;11.95;9.90;;;;;;;22.51;53.43;93535.75;5035118;28;20034;-74
2022/06/22 04:38:39;;;;;;;10.80;9.10;;;;;;;22.30;52.94;93534.69;5032235;28;20041;-74
2022/06/22 04:41:17;;;;;;;12.80;9.73;;;;;;;22.45;52.92;93551.66;5032430;28;20029;-74
2022/06/22 04:43:43;;;;;;;12.98;9.05;;;;;;;22.51;52.54;93550.06;5032271;28;20052;-74
2022/06/22 04:46:15;;;;;;;11.98;8.20;;;;;;;22.53;52.37;93547.75;5035438;28;20032;-74
2022/06/22 04:48:47;;;;;;;12.70;9.57;;;;;;;22.24;52.51;93535.50;5035016;28;20080;-75
2022/06/22 04:51:20;;;;;;;13.02;8.15;;;;;;;22.18;53.83;93547.88;5034654;28;20022;-75
2022/06/22 04:53:52;;;;;;;15.20;9.32;;;;;;;22.20;53.54;93546.28;5032140;28;20036;-75
2022/06/22 04:56:27;;;;;;;13.88;9.18;;;;;;;22.28;54.17;93552.50;5033557;28;20037;-75
2022/06/22 04:58:54;;;;;;;9.95;8.32;;;;;;;22.41;53.98;93563.66;5034988;28;20034;-74
2022/06/22 05:01:30;;;;;;;14.85;10.02;;;;;;;22.07;54.54;93536.28;5041137;28;20086;-75
2022/06/22 05:04:05;;;;;;;14.30;9.65;;;;;;;22.15;55.23;93568.38;5033767;28;20062;-75
2022/06/22 05:06:33;;;;;;;;;;;;;;;22.21;55.79;93572.25;5028128;28;20029;-74
2022/06/22 05:09:03;;;;;;;14.88;10.02;;;;;;;22.23;56.10;93561.81;5032795;28;19908;-75
2022/06/22 05:11:38;;;;;;;13.35;8.60;;;;;;;22.22;55.29;93554.84;5029937;28;20044;-75
2022/06/22 05:14:14;;;;;;;12.82;9.27;;;;;;;22.07;55.46;93537.06;5030477;28;20165;-74
2022/06/22 05:16:39;;;;;;;14.63;9.30;;;;;;;22.41;55.78;93563.66;5029885;28;20040;-75
2022/06/22 05:19:08;;;;;;;15.40;10.82;;;;;;;22.50;56.01;93585.69;5032047;28;20497;-75
2022/06/22 05:21:38;;;;;;;14.05;9.98;;;;;;;22.77;55.43;93581.31;5037714;28;20111;-75
2022/06/22 05:24:24;;;;;;;9.82;8.48;;;;;;;22.67;54.00;93557.75;5034221;28;20507;-74
2022/06/22 05:26:53;;;;;;;11.80;8.70;;;;;;;22.91;53.63;93578.56;5030144;28;20068;-74
2022/06/22 05:29:21;;;;;;;13.25;10.40;;;;;;;22.94;53.79;93555.28;5030481;28;20071;-75
2022/06/22 05:31:54;;;;;;;10.85;9.65;;;;;;;23.11;53.41;93571.44;5033046;28;20037;-75
2022/06/22 05:34:24;;;;;;;12.05;9.82;;;;;;;23.12;54.14;93559.41;5032442;28;20522;-74
2022/06/22 05:36:58;;;;;;;11.23;8.75;;;;;;;23.00;53.05;93535.47;5039326;28;20037;-76
2022/06/22 05:39:24;;;;;;;13.10;11.20;;;;;;;22.72;53.81;93538.34;5040341;28;20083;-76
2022/06/22 05:41:50;;;;;;;14.15;9.85;;;;;;;22.71;54.41;93545.72;5033972;28;20396;-75
2022/06/22 05:44:18;;;;;;;14.75;9.98;;;;;;;22.72;54.43;93560.03;5042292;28;20037;-76
2022/06/22 05:46:56;;;;;;;12.52;10.02;;;;;;;22.85;54.62;93565.75;5039232;28;20037;-75
2022/06/22 05:49:32;;;;;;;13.02;9.98;;;;;;;22.72;54.65;93547.25;5044634;28;20041;-76
2022/06/22 05:52:33;;;;;;;11.02;8.57;;;;;;;22.82;54.59;93588.25;5041101;28;20033;-76
2022/06/22 05:55:06;;;;;;;15.52;9.18;;;;;;;22.89;54.83;93569.25;5038595;28;20068;-76
2022/06/22 05:57:45;;;;;;;11.82;10.45;;;;;;;22.91;54.40;93578.56;5040832;28;20057;-77
2022/06/22 06:00:17;;;;;;;14.18;9.63;;;;;;;22.93;55.33;93587.03;5047295;28;20029;-76
2022/06/22 06:03:34;;;;;;;13.63;10.88;;;;;;;22.79;55.30;93578.97;5042605;28;20046;-75
2022/06/22 06:06:12;;;;;;;16.58;11.00;;;;;;;22.91;55.85;93580.47;4995475;28;20686;-75
2022/06/22 06:08:44;;;;;;;11.18;9.25;;;;;;;22.77;55.46;93584.03;5049169;28;20405;-75
2022/06/22 06:11:21;;;;;;;12.15;9.10;;;;;;;22.39;56.07;93580.31;5042949;28;20527;-75
2022/06/22 06:13:52;;;;;;;13.18;10.55;;;;;;;22.47;56.21;93572.94;5041057;28;20049;-76
2022/06/22 06:16:24;;;;;;;15.80;9.80;;;;;;;22.25;57.09;93558.69;5039962;28;20105;-76
2022/06/22 06:18:50;;;;;;;13.07;10.73;;;;;;;22.34;56.53;93555.59;5045698;28;20033;-75
2022/06/22 06:21:21;;;;;;;14.13;10.00;;;;;;;22.69;56.45;93582.50;5042466;28;20096;-76
2022/06/22 06:23:53;;;;;;;17.65;10.05;;;;;;;22.97;56.62;93571.53;5042528;28;20530;-75
2022/06/22 06:30:00;;;;;;;12.90;9.60;;;;;;;23.39;56.04;93575.13;5046046;28;20048;-75
2022/06/22 06:32:31;;;;;;;14.20;11.05;;;;;;;23.40;53.93;93557.66;5046435;28;20128;-76
2022/06/22 06:35:01;;;;;;;10.00;8.90;;;;;;;23.62;53.40;93569.91;5044016;28;20076;-76
2022/06/22 06:37:45;;;;;;;15.00;9.77;;;;;;;23.72;53.16;93566.31;5040574;28;20053;-75
2022/06/22 06:40:20;;;;;;;15.00;10.13;;;;;;;23.78;53.93;93570.16;5036438;28;20127;-75
2022/06/22 06:43:09;;;;;;;15.27;11.15;;;;;;;23.98;53.28;93570.34;5041773;28;20504;-75
2022/06/22 06:45:35;;;;;;;12.15;10.50;;;;;;;23.61;52.77;93537.75;5033566;28;21108;-75
2022/06/22 06:48:06;;;;;;;17.23;11.50;;;;;;;23.92;52.72;93574.66;5043336;28;20096;-76
2022/06/22 06:50:39;;;;;;;13.52;10.90;;;;;;;23.99;53.03;93572.66;5044445;28;20052;-76
2022/06/22 06:53:43;;;;;;;16.05;11.38;;;;;;;24.21;53.15;93569.72;5043573;28;20438;-75
2022/06/22 06:56:23;;;;;;;16.08;10.85;;;;;;;24.22;52.32;93563.13;5047458;28;20025;-75
2022/06/22 06:58:55;;;;;;;14.38;10.50;;;;;;;24.32;52.08;93549.41;5040773;28;20064;-76
2022/06/22 07:01:27;;;;;;;15.60;10.93;;;;;;;24.42;51.49;93567.56;5048133;28;20097;-75
2022/06/22 07:03:59;;;;;;;14.90;11.77;;;;;;;24.47;50.83;93560.88;5048663;28;20157;-75
2022/06/22 07:06:29;;;;;;;14.32;10.98;;;;;;;24.32;52.15;93545.94;5048390;28;20104;-76
2022/06/22 07:08:58;;;;;;;16.42;9.65;;;;;;;24.25;52.29;93540.56;5047326;28;20057;-75
2022/06/22 07:11:33;;;;;;;13.68;11.00;;;;;;;24.31;52.43;93547.88;5047041;28;20037;-76
2022/06/22 07:14:32;;;;;;;14.98;11.82;;;;;;;24.44;51.10;93559.75;5046304;28;20041;-75
2022/06/22 07:17:09;;;;;;;13.77;9.82;;;;;;;24.33;49.99;93542.03;5053705;28;20034;-75
2022/06/22 07:19:41;;;;;;;16.02;11.30;;;;;;;24.18;50.74;93505.34;5049870;28;20045;-76
2022/06/22 07:22:27;;;;;;;13.32;11.10;;;;;;;24.54;49.94;93560.78;5053887;28;20033;-75
2022/06/22 07:24:57;;;;;;;15.02;11.48;;;;;;;24.58;49.33;93563.47;5048539;28;20033;-76
2022/06/22 07:27:34;;;;;;;15.10;11.43;;;;;;;24.52;49.66;93563.16;5048023;28;20057;-76
2022/06/22 07:30:12;;;;;;;13.77;10.52;;;;;;;24.46;49.88;93553.91;5048798;28;20535;-76
2022/06/22 07:32:51;;;;;;;16.85;11.77;;;;;;;24.33;50.78;93540.09;5049490;28;20056;-76
2022/06/22 07:35:55;;;;;;;19.23;12.55;;;;;;;24.54;50.92;93552.63;5047748;28;20047;-76
2022/06/22 07:38:32;;;;;;;18.65;12.63;;;;;;;24.36;49.73;93533.06;5001022;28;20050;-76
2022/06/22 07:43:42;;;;;;;16.88;11.70;;;;;;;24.31;49.98;93519.94;5030105;28;20056;-76
2022/06/22 07:46:17;;;;;;;17.35;12.77;;;;;;;24.38;50.71;93530.72;5046662;28;20041;-75
2022/06/22 07:48:47;;;;;;;16.77;12.35;;;;;;;24.58;51.08;93547.94;5046869;28;20049;-75
2022/06/22 07:51:22;;;;;;;17.23;12.23;;;;;;;24.25;49.89;93521.53;5046983;28;20029;-76
2022/06/22 07:54:23;;;;;;;16.98;10.93;;;;;;;24.51;50.61;93552.69;5047873;28;20056;-75
2022/06/22 07:57:12;;;;;;;16.27;12.52;;;;;;;24.68;50.43;93560.63;5010414;28;20038;-75
2022/06/22 07:59:41;;;;;;;16.40;11.50;;;;;;;24.73;50.54;93556.72;5044153;28;20494;-75
2022/06/22 08:02:19;;;;;;;14.43;11.35;;;;;;;24.88;50.12;93551.84;5042661;28;20117;-75
2022/06/22 08:04:49;;;;;;;14.77;11.40;;;;;;;24.88;49.61;93546.41;5044710;28;20080;-76
2022/06/22 08:07:21;;;;;;;14.45;11.55;;;;;;;24.88;50.09;93540.97;5046329;28;20038;-76
2022/06/22 08:10:12;;;;;;;20.20;12.82;;;;;;;25.06;49.99;93574.13;5041457;28;20021;-75
2022/06/22 08:12:47;;;;;;;18.25;12.15;;;;;;;24.87;50.39;93572.84;5045009;28;20071;-76
2022/06/22 08:15:16;;;;;;;16.20;12.55;;;;;;;24.94;49.75;93550.19;5049111;28;20021;-75
2022/06/22 08:17:50;;;;;;;15.73;12.10;;;;;;;24.81;48.55;93564.38;5048579;28;20092;-76
2022/06/22 08:20:24;;;;;;;15.13;10.63;;;;;;;24.72;48.11;93561.38;5050058;28;20036;-75
2022/06/22 08:22:50;;;;;;;15.97;11.70;;;;;;;24.50;49.21;93556.56;5051873;28;20048;-76
2022/06/22 08:25:18;;;;;;;15.77;10.13;;;;;;;24.58;49.02;93569.69;5046765;28;20536;-75
2022/06/22 08:27:45;;;;;;;13.57;9.38;;;;;;;24.63;48.23;93563.81;5044670;28;20593;-76
2022/06/22 08:30:13;;;;;;;14.02;8.88;;;;;;;24.52;47.51;93554.22;5052589;28;20017;-76
2022/06/22 08:32:58;;;;;;;12.10;8.60;;;;;;;24.66;47.03;93567.63;5060603;28;20033;-76
2022/06/22 08:35:32;;;;;;;13.70;10.48;;;;;;;24.61;49.04;93566.16;5059855;28;20039;-75
2022/06/22 08:38:00;;;;;;;13.45;10.02;;;;;;;24.49;49.01;93564.00;5045055;28;20060;-76
2022/06/22 08:40:53;;;;;;;14.68;10.02;;;;;;;24.39;49.80;93537.72;5044372;28;20324;-75
2022/06/22 08:43:18;;;;;;;15.80;10.02;;;;;;;24.55;49.82;93562.34;5045429;28;20029;-76
2022/06/22 08:46:10;;;;;;;16.83;10.52;;;;;;;24.30;49.57;93523.81;5052424;28;20025;-75
2022/06/22 08:48:44;;;;;;;13.32;9.15;;;;;;;24.57;48.01;93562.72;5038561;28;20042;-76
2022/06/22 08:51:26;;;;;;;12.55;8.48;;;;;;;24.54;48.83;93560.78;5046974;28;20055;-76
2022/06/22 08:54:13;;;;;;;16.02;11.65;;;;;;;24.59;49.46;93567.75;5054396;28;20056;-76
2022/06/22 08:57:02;;;;;;;12.25;9.10;;;;;;;24.49;49.74;93555.06;5039815;28;20045;-75
2022/06/22 08:59:28;;;;;;;13.27;9.18;;;;;;;24.54;48.35;93555.34;5039873;28;20101;-75
2022/06/22 09:02:31;;;;;;;13.45;9.10;;;;;;;24.50;47.78;93554.63;5040507;28;20110;-76
2022/06/22 09:05:15;;;;;;;14.35;9.65;;;;;;;24.45;48.75;93546.94;5044611;28;20515;-75
2022/06/22 09:07:49;;;;;;;14.02;9.13;;;;;;;24.48;49.50;93548.84;5042185;28;20060;-75
2022/06/22 09:10:23;;;;;;;13.35;8.75;;;;;;;24.36;49.76;93536.56;5040593;28;20523;-76
2022/06/22 09:13:33;;;;;;;15.43;9.25;;;;;;;24.32;50.17;93537.78;5039496;28;20041;-76
2022/06/22 09:16:40;;;;;;;15.23;10.68;;;;;;;24.35;50.14;93537.72;5038107;28;20086;-75
2022/06/22 09:19:24;;;;;;;13.68;9.70;;;;;;;24.57;51.25;93540.19;5037198;28;20041;-76
2022/06/22 09:22:23;;;;;;;11.23;9.80;;;;;;;24.68;50.50;93530.72;5041809;28;20051;-76
2022/06/22 09:25:16;;;;;;;13.57;9.10;;;;;;;24.72;49.71;93534.19;5040742;28;20454;-75
2022/06/22 09:27:47;;;;;;;11.43;8.27;;;;;;;24.70;48.93;93522.91;5039831;28;20053;-76
2022/06/22 09:30:12;;;;;;;9.45;8.27;;;;;;;24.77;49.47;93530.25;5048159;28;20024;-76
2022/06/22 09:33:15;;;;;;;12.30;7.70;;;;;;;24.75;47.79;93525.19;5041537;28;20107;-76
2022/06/22 09:36:08;;;;;;;10.40;8.32;;;;;;;24.74;47.58;93526.38;5040736;28;20175;-76
2022/06/22 09:39:08;;;;;;;11.05;7.88;;;;;;;24.75;48.45;93506.16;5042074;28;20052;-76
2022/06/22 09:42:00;;;;;;;12.63;8.20;;;;;;;24.88;47.33;93524.66;5041780;28;20049;-76
2022/06/22 09:44:58;;;;;;;12.80;8.90;;;;;;;24.84;48.48;93514.56;5040059;28;20410;-76
2022/06/22 09:47:29;;;;;;;10.63;8.55;;;;;;;24.94;47.87;93506.66;5039702;28;20128;-76
2022/06/22 09:50:48;;;;;;;12.18;8.82;;;;;;;25.11;47.81;93517.31;5042603;28;20041;-76
2022/06/22 09:53:16;;;;;;;12.55;9.25;;;;;;;25.13;47.39;93511.41;5004764;28;20039;-76
2022/06/22 09:59:18;;;;;;;11.38;8.15;;;;;;;25.20;46.79;93514.81;5040097;28;20037;-76
2022/06/22 10:02:06;;;;;;;11.90;8.25;;;;;;;25.18;47.25;93513.69;5039728;28;20066;-75
2022/06/22 10:04:50;;;;;;;12.20;7.97;;;;;;;25.26;48.04;93515.13;5039876;28;20034;-75
2022/06/22 10:07:32;;;;;;;12.50;7.88;;;;;;;25.30;47.96;93518.56;5042772;28;20649;-76
2022/06/22 10:10:05;;;;;;;17.23;8.63;;;;;;;25.40;48.16;93536.69;5039966;28;20044;-75
2022/06/22 10:13:01;;;;;;;10.45;8.40;;;;;;;25.30;47.17;93526.72;5041431;28;20416;-75
2022/06/22 10:15:36;;;;;;;11.57;7.85;;;;;;;25.32;47.54;93538.00;5047825;28;20488;-75
2022/06/22 10:18:19;;;;;;;9.95;8.13;;;;;;;25.36;47.80;93530.53;5041931;28;20053;-76
2022/06/22 10:21:09;;;;;;;10.98;8.10;;;;;;;25.42;48.08;93544.47;5041543;28;20045;-77
2022/06/22 10:23:56;;;;;;;8.43;7.45;;;;;;;25.27;46.02;93530.28;5032897;28;20037;-76
2022/06/22 10:26:40;;;;;;;12.02;7.10;;;;;;;25.42;46.71;93545.19;5029359;28;20405;-76
2022/06/22 10:29:32;;;;;;;11.13;7.97;;;;;;;25.44;46.22;93540.13;5031591;28;20038;-76
2022/06/22 10:32:14;;;;;;;11.50;8.00;;;;;;;25.41;46.90;93540.97;4995690;28;20532;-76
2022/06/22 10:35:37;;;;;;;11.07;7.28;;;;;;;25.39;47.86;93532.44;5039217;28;20037;-75
2022/06/22 10:38:11;;;;;;;9.40;6.63;;;;;;;25.27;47.24;93536.47;5008957;28;20042;-76
2022/06/22 10:46:58;;;;;;;10.50;7.47;;;;;;;25.37;47.49;93531.31;5044766;28;20036;-76
2022/06/22 10:49:42;;;;;;;13.82;7.93;;;;;;;25.34;48.53;93535.63;5045890;28;20037;-76
2022/06/22 10:52:29;;;;;;;16.27;8.32;;;;;;;25.36;48.85;93536.00;5029681;28;20128;-76
2022/06/22 10:55:13;;;;;;;10.02;8.25;;;;;;;25.12;48.56;93537.88;5037201;28;20049;-75
2022/06/22 10:57:56;;;;;;;;;;;;;;;25.15;49.19;93539.78;5041808;28;20528;-76
2022/06/22 11:00:50;;;;;;;8.82;7.57;;;;;;;25.00;49.23;93532.22;5042676;28;19908;-76
2022/06/22 11:03:44;;;;;;;10.65;7.68;;;;;;;25.16;49.48;93535.09;5042145;28;20099;-76
2022/06/22 11:06:09;;;;;;;9.18;8.27;;;;;;;25.08;50.20;93530.94;5040942;28;20053;-76
2022/06/22 11:08:46;;;;;;;8.98;7.60;;;;;;;25.25;48.81;93532.63;5033149;28;20045;-76
2022/06/22 11:11:35;;;;;;;9.13;7.57;;;;;;;25.26;49.71;93534.16;5034867;28;20517;-73
2022/06/22 11:14:38;;;;;;;11.48;7.60;;;;;;;25.29;51.16;93522.44;5054707;28;20053;-77
2022/06/22 11:17:22;;;;;;;9.50;7.75;;;;;;;25.53;50.94;93532.19;5039180;28;20119;-77
2022/06/22 11:20:14;;;;;;;8.47;7.67;;;;;;;25.61;50.90;93532.84;5042958;28;20542;-75
2022/06/22 11:22:42;;;;;;;13.63;8.07;;;;;;;25.42;50.46;93539.75;5044010;28;20422;-76
2022/06/22 11:25:16;;;;;;;11.32;7.90;;;;;;;25.49;50.90;93553.25;5031348;28;20033;-76
2022/06/22 11:31:09;;;;;;;9.75;7.72;;;;;;;25.17;48.15;93540.16;5042759;28;20792;-76
2022/06/22 11:33:38;;;;;;;8.32;7.43;;;;;;;25.11;48.82;93555.38;5041335;28;20045;-76
2022/06/22 11:36:39;;;;;;;11.15;7.72;;;;;;;25.03;50.98;93548.50;5037577;28;20607;-73
2022/06/22 11:39:07;;;;;;;10.48;8.10;;;;;;;24.97;51.58;93533.06;4995087;28;20047;-76
2022/06/22 11:42:10;;;;;;;10.30;7.78;;;;;;;25.12;51.28;93550.72;5028379;28;20053;-76
2022/06/22 11:48:20;;;;;;;10.70;8.65;;;;;;;25.21;52.74;93542.81;5025962;28;20052;-73
2022/06/22 11:50:52;;;;;;;14.70;8.73;;;;;;;25.16;52.27;93535.09;5025472;28;20518;-73
2022/06/22 11:53:45;;;;;;;13.07;7.82;;;;;;;25.22;53.38;93528.03;5027041;28;20097;-73
2022/06/22 11:56:38;;;;;;;11.00;8.52;;;;;;;25.37;52.17;93537.50;5022321;28;20045;-73
2022/06/22 11:59:12;;;;;;;12.35;9.80;;;;;;;25.31;51.88;93536.47;5018999;28;20445;-74
2022/06/22 12:02:06;;;;;;;9.55;7.68;;;;;;;25.19;50.82;93496.94;5022699;28;20404;-74
2022/06/22 12:05:05;;;;;;;9.53;7.97;;;;;;;25.50;51.11;93543.16;5021441;28;20033;-74
2022/06/22 12:07:56;;;;;;;11.32;8.30;;;;;;;25.63;51.36;93542.13;5011518;28;20038;-73
2022/06/22 12:10:21;;;;;;;18.05;9.70;;;;;;;25.66;50.74;93535.09;5003149;28;20128;-73
2022/06/22 12:12:49;;;;;;;12.13;9.10;;;;;;;25.82;50.86;93528.97;5004104;28;20473;-74
2022/06/22 12:15:37;;;;;;;13.60;8.30;;;;;;;25.74;49.21;93531.06;5007417;28;20029;-73
2022/06/22 12:18:23;;;;;;;11.45;8.07;;;;;;;25.80;48.33;93542.25;5024939;28;20044;-73
2022/06/22 12:21:22;;;;;;;14.00;7.75;;;;;;;25.79;47.15;93533.31;5023157;28;20400;-74
2022/06/22 12:24:13;;;;;;;10.40;8.50;;;;;;;25.79;48.53;93524.38;5026307;28;20062;-73
2022/06/22 12:26:45;;;;;;;10.13;8.77;;;;;;;25.63;48.36;93522.31;5022815;28;20549;-73
2022/06/22 12:29:23;;;;;;;10.88;8.88;;;;;;;25.61;48.34;93543.75;5024317;28;20040;-74
2022/06/22 12:31:56;;;;;;;11.40;7.85;;;;;;;25.53;48.17;93537.63;5025089;28;20076;-73
2022/06/22 12:34:30;;;;;;;11.00;8.15;;;;;;;25.63;47.29;93536.69;5024952;28;20174;-74
2022/06/22 12:36:59;;;;;;;9.27;7.70;;;;;;;25.65;47.73;93545.22;5024949;28;21552;-73
2022/06/22 12:39:32;;;;;;;8.55;7.28;;;;;;;25.48;46.62;93518.28;5025858;28;20036;-73
2022/06/22 12:42:35;;;;;;;13.60;8.15;;;;;;;25.69;47.16;93540.47;5026386;28;20037;-74